Tropical Cyclones
[Index]
Main Index Home Page Stock Weather Photos Extreme Storms Discussion Storm News and Storm Chasing Reports Tropical Cyclones / Hurricanes / Typhoons Weather Data and Links Wild Fires / Bushfires Weather Observation Techniques Weather Picture Catalogue Tornado Pictures and Reports Stock Video Footage and DVDs for sale
Season 1999-2000 Tropical Cyclone PAUL Track Map
Season 1999-2000 Summaries: [BoM-AU] [JTWC-AU] [JTWC-SIO] [JTWC-SPAC] [JTWC-SH]
<<- Previous TC | JTWC 1999-2000 Season | Next TC ->>

click for intensity scale information  Lat/long Grid: Show Hide

 Date Labels: Show Hide

Joint Typhoon Warning Centre Cyclone Data

Name: PAUL

11 Apr 2000 00:00 UTC to 21 Apr 2000 18:00 UTC

    date/time    lat    long     hPa   cat  kts
2000-04-11 00   13.1   127.4                  20          
2000-04-11 06   12.9   125.6                  25          
2000-04-11 12   13.0   124.4                  25          
2000-04-11 18   13.2   122.9                  25          
2000-04-12 00   13.3   120.8                  25          
2000-04-12 06   13.0   118.9                  25          
2000-04-12 12   12.9   117.4                  25          
2000-04-12 18   13.1   115.9                  30          
2000-04-13 00   13.8   114.3                  30          
2000-04-13 06   14.0   113.1                  35          
2000-04-13 12   14.5   111.6            1     40          
2000-04-13 18   14.7   110.2            1     50          
2000-04-14 00   14.9   109.0            2     60          
2000-04-14 06   15.0   108.0            2     70          
2000-04-14 12   15.0   107.0            3     90          
2000-04-14 18   14.8   105.9            4    100          
2000-04-15 00   14.5   104.9            4    110          
2000-04-15 06   14.2   103.8            5    125          
2000-04-15 12   13.9   102.8            5    125          
2000-04-15 18   13.7   101.7            5    125          
2000-04-16 00   13.7   100.9            5    125          
2000-04-16 06   13.7   100.1            5    130          
2000-04-16 12   13.8    99.4            5    125          
2000-04-16 18   13.9    98.8            5    125          
2000-04-17 00   14.0    98.0            4    120          
2000-04-17 06   14.1    97.4            4    115          
2000-04-17 12   14.3    96.7            4    115          
2000-04-17 18   14.5    96.4            4    110          
2000-04-18 00   14.6    96.1            4    105          
2000-04-18 06   14.6    95.9            4    100          
2000-04-18 12   14.6    95.7            3     95          
2000-04-18 18   14.6    95.5            3     95          
2000-04-19 00   14.7    95.3            3     90          
2000-04-19 06   14.7    95.2            3     80          
2000-04-19 12   14.7    95.1            2     65          
2000-04-19 18   14.7    94.9            2     65          
2000-04-20 00   14.7    94.6            2     55          
2000-04-20 06   14.8    94.2            1     50          
2000-04-20 12   14.9    93.8            1     45          
2000-04-20 18   15.0    93.4                  35          
2000-04-21 00   15.1    93.0                  35          
2000-04-21 06   15.2    92.3                  35          
2000-04-21 12   15.3    91.6                  35          
2000-04-21 18   15.4    90.9                  25          
Winds are 1-min average.

Tropical cyclone tracks developed by Michael Bath using data from the Joint Typhoon Warning Centre Best Tracks and Google Maps.


[Australian Severe Weather index] [Copyright Notice] [Email Contacts] [Search This Site] [Privacy Policy]
Document: tropical_cyclone_paul.htm Updated: 18 September 2016